Terminal Aerodrome Forecast
Issued by NWS Tuscon, AZ

Home | Current Version | Previous Version | Text Only | Print | Product List | Glossary On
Versions: 1 2 3 4 5 6 7 8 9 10 11 12 13 14 15 16 17 18 19 20 21 22
000
FTUS45 KTWC 191600 AAA
TAFTUS
TAF AMD
KTUS 191613Z 1916/2012 16003KT P6SM VCFG SKC
     FM191800 VRB03KT P6SM SKC
     FM192000 35006KT P6SM SKC
     FM200300 15005KT P6SM SCT250=

USA.gov is the U.S. government's official web portal to all federal, state and local government web resources and services.